Terminal Aerodrome Forecast
Issued by NWS Pittsburgh, PA

Home | Current Version | Previous Version | Text Only | Print | Product List | Glossary On
Versions: 1 2 3 4 5 6 7 8 9 10 11 12 13 14 15 16 17 18 19 20 21 22 23 24 25 26 27 28 29 30 31 32
000
FTUS41 KPBZ 010800 AAA
TAFPIT
TAF AMD
KPIT 010857Z 0109/0212 22005KT P6SM OVC040
     FM011000 VRB03KT 3SM -SN BR OVC025
     FM011200 19005KT 1SM -SN BR OVC006
     FM012100 07006KT 2SM -DZ BR BKN008 OVC080
     FM020300 13006KT 2SM -RA BR OVC005=

USA.gov is the U.S. government's official web portal to all federal, state and local government web resources and services.